createdAt,value
2023-05-22T00:01:46.837Z,102669.50
2023-05-22T00:04:52.304Z,102671.19
2023-05-22T00:07:57.594Z,102665.22
2023-05-22T00:11:02.779Z,102663.50
2023-05-22T00:14:09.284Z,102661.91
2023-05-22T00:17:15.137Z,102664.38
2023-05-22T00:20:20.319Z,102662.75
2023-05-22T00:23:26.020Z,102661.03
2023-05-22T00:26:31.070Z,102660.19
2023-05-22T00:29:37.501Z,102666.03
2023-05-22T00:32:43.014Z,102662.66
2023-05-22T00:35:48.155Z,102663.50
2023-05-22T00:38:53.168Z,102666.16
2023-05-22T00:41:58.173Z,102656.75
2023-05-22T00:45:05.165Z,102666.00
2023-05-22T00:48:13.893Z,102666.06
2023-05-22T00:51:19.018Z,102662.75
2023-05-22T00:54:24.100Z,102650.78
2023-05-22T00:57:29.854Z,102666.19
2023-05-22T01:00:36.993Z,102665.34
2023-05-22T01:03:46.013Z,102666.34
2023-05-22T01:06:51.618Z,102650.06
2023-05-22T01:09:56.718Z,102650.06
2023-05-22T01:13:06.489Z,102656.97
2023-05-22T01:16:22.114Z,102651.00
2023-05-22T01:19:42.248Z,102635.63
2023-05-22T01:23:17.515Z,102646.75
2023-05-22T01:26:56.608Z,102651.13
2023-05-22T01:30:19.414Z,102649.38
2023-05-22T01:33:27.193Z,102649.38
2023-05-22T01:36:35.221Z,102649.38
2023-05-22T01:39:40.570Z,102654.56
2023-05-22T01:42:47.678Z,102657.16
2023-05-22T01:45:52.786Z,102653.75
2023-05-22T01:48:59.294Z,102654.56
2023-05-22T01:52:12.314Z,102652.72
2023-05-22T01:55:21.834Z,102662.28
2023-05-22T01:58:33.030Z,102657.16
2023-05-22T02:01:39.314Z,102669.06
2023-05-22T02:04:50.790Z,102660.53
2023-05-22T02:07:59.173Z,102668.28
2023-05-22T02:11:05.299Z,102660.56
2023-05-22T02:14:12.289Z,102653.84
2023-05-22T02:17:18.801Z,102660.63
2023-05-22T02:20:25.167Z,102658.91
2023-05-22T02:23:30.628Z,102651.25
2023-05-22T02:26:35.833Z,102657.25
2023-05-22T02:29:41.938Z,102652.13
2023-05-22T02:32:48.693Z,102650.44
2023-05-22T02:35:54.889Z,102652.13
2023-05-22T02:39:00.331Z,102648.72
2023-05-22T02:42:05.803Z,102642.75
2023-05-22T02:45:11.625Z,102643.59
2023-05-22T02:48:16.903Z,102637.69
2023-05-22T02:51:23.601Z,102643.66
2023-05-22T02:54:28.734Z,102650.44
2023-05-22T02:57:33.735Z,102643.66
2023-05-22T03:00:39.163Z,102641.97
2023-05-22T03:03:44.583Z,102643.66
2023-05-22T03:06:51.236Z,102631.63
2023-05-22T03:09:56.470Z,102630.78
2023-05-22T03:13:01.552Z,102634.22
2023-05-22T03:16:08.422Z,102641.88
2023-05-22T03:19:17.858Z,102646.16
2023-05-22T03:22:24.381Z,102647.00
2023-05-22T03:25:29.488Z,102647.84
2023-05-22T03:28:34.785Z,102643.56
2023-05-22T03:31:40.081Z,102645.28
2023-05-22T03:34:48.788Z,102637.59
2023-05-22T03:37:55.282Z,102645.22
2023-05-22T03:41:00.658Z,102634.09
2023-05-22T03:44:05.926Z,102631.53
2023-05-22T03:47:14.030Z,102636.59
2023-05-22T03:50:19.091Z,102635.72
2023-05-22T03:53:25.771Z,102638.31
2023-05-22T03:56:31.532Z,102628.91
2023-05-22T03:59:36.517Z,102627.19
2023-05-22T04:02:45.313Z,102629.75
2023-05-22T04:05:51.471Z,102626.34
2023-05-22T04:08:58.940Z,102630.50
2023-05-22T04:12:04.349Z,102627.09
2023-05-22T04:15:10.540Z,102628.78
2023-05-22T04:18:15.783Z,102628.69
2023-05-22T04:21:20.888Z,102620.13
2023-05-22T04:24:27.820Z,102620.09
2023-05-22T04:27:33.293Z,102624.31
2023-05-22T04:30:40.413Z,102620.03
2023-05-22T04:33:48.394Z,102614.84
2023-05-22T04:36:53.450Z,102611.41
2023-05-22T04:40:02.913Z,102605.31
2023-05-22T04:43:08.598Z,102601.88
2023-05-22T04:46:14.431Z,102602.66
2023-05-22T04:49:19.529Z,102600.91
2023-05-22T04:52:24.577Z,102599.09
2023-05-22T04:55:34.288Z,102598.88
2023-05-22T04:58:40.360Z,102590.25
2023-05-22T05:01:45.609Z,102585.84
2023-05-22T05:04:50.780Z,102592.63
2023-05-22T05:07:55.886Z,102590.91
2023-05-22T05:11:03.180Z,102587.28
2023-05-22T05:14:08.186Z,102586.38
2023-05-22T05:17:13.951Z,102588.03
2023-05-22T05:20:19.053Z,102586.25
2023-05-22T05:23:24.111Z,102586.16
2023-05-22T05:26:30.624Z,102579.06
2023-05-22T05:29:36.957Z,102583.91
2023-05-22T05:32:48.436Z,102576.66
2023-05-22T05:36:12.370Z,102565.25
2023-05-22T05:39:18.225Z,102555.25
2023-05-22T05:42:24.882Z,102554.66
2023-05-22T05:45:32.838Z,102543.91
2023-05-22T05:48:38.099Z,102540.09
2023-05-22T05:51:43.617Z,102550.66
2023-05-22T05:54:50.060Z,102534.78
2023-05-22T05:58:00.179Z,102546.28
2023-05-22T06:01:16.851Z,102545.09
2023-05-22T06:04:21.850Z,102530.06
2023-05-22T06:07:29.758Z,102521.72
2023-05-22T06:10:34.831Z,102520.94
2023-05-22T06:13:51.397Z,102529.88
2023-05-22T06:16:56.705Z,102530.13
2023-05-22T06:20:02.093Z,102527.13
2023-05-22T06:23:08.116Z,102526.53
2023-05-22T06:26:14.326Z,102525.72
2023-05-22T06:29:22.856Z,102526.91
2023-05-22T06:32:29.495Z,102523.50
2023-05-22T06:35:34.860Z,102526.94
2023-05-22T06:38:40.810Z,102523.91
2023-05-22T06:41:58.402Z,102518.31
2023-05-22T06:45:05.492Z,102517.78
2023-05-22T06:48:20.124Z,102510.63
2023-05-22T06:51:45.688Z,102513.88
2023-05-22T06:54:52.390Z,102508.69
2023-05-22T06:57:57.546Z,102507.00
2023-05-22T07:01:05.961Z,102504.31
2023-05-22T07:04:17.219Z,102504.91
2023-05-22T07:07:33.060Z,102517.56
2023-05-22T07:10:38.398Z,102510.47
2023-05-22T07:13:43.576Z,102509.78
2023-05-22T07:16:50.358Z,102509.44
2023-05-22T07:20:01.806Z,102506.06
2023-05-22T07:23:07.711Z,102502.97
2023-05-22T07:26:14.660Z,102494.22
2023-05-22T07:29:26.881Z,102504.84
2023-05-22T07:32:34.760Z,102489.19
2023-05-22T07:35:41.311Z,102493.22
2023-05-22T07:38:47.332Z,102497.25
2023-05-22T07:41:54.589Z,102490.50
2023-05-22T07:45:02.238Z,102492.97
2023-05-22T07:48:09.134Z,102488.28
2023-05-22T07:51:15.441Z,102486.03
2023-05-22T07:54:20.712Z,102491.78
2023-05-22T07:57:29.918Z,102481.69
2023-05-22T08:00:40.595Z,102487.09
2023-05-22T08:03:47.197Z,102483.38
2023-05-22T08:06:52.463Z,102489.22
2023-05-22T08:09:57.499Z,102483.56
2023-05-22T08:13:06.273Z,102486.03
2023-05-22T08:16:12.936Z,102474.50
2023-05-22T08:19:19.639Z,102488.50
2023-05-22T08:22:24.813Z,102488.28
2023-05-22T08:25:30.052Z,102486.59
2023-05-22T08:28:35.795Z,102481.41
2023-05-22T08:31:41.223Z,102477.06
2023-05-22T08:34:48.031Z,102487.59
2023-05-22T08:37:53.091Z,102476.50
2023-05-22T08:40:59.003Z,102479.94
2023-05-22T08:44:06.020Z,102472.88
2023-05-22T08:47:15.232Z,102474.13
2023-05-22T08:50:22.308Z,102472.31
2023-05-22T08:53:30.087Z,102463.19
2023-05-22T08:56:39.686Z,102456.81
2023-05-22T08:59:48.134Z,102454.38
2023-05-22T09:02:55.877Z,102459.47
2023-05-22T09:06:03.061Z,102447.41
2023-05-22T09:09:08.239Z,102448.19
2023-05-22T09:12:14.241Z,102444.44
2023-05-22T09:15:21.321Z,102440.66
2023-05-22T09:18:29.770Z,102427.28
2023-05-22T09:21:38.602Z,102424.91
2023-05-22T09:24:44.959Z,102421.81
2023-05-22T09:27:50.433Z,102422.38
2023-05-22T09:30:56.565Z,102419.66
2023-05-22T09:34:01.693Z,102422.59
2023-05-22T09:37:08.255Z,102416.44
2023-05-22T09:40:15.045Z,102412.56
2023-05-22T09:43:20.328Z,102413.59
2023-05-22T09:46:25.579Z,102410.81
2023-05-22T09:49:30.597Z,102406.59
2023-05-22T09:52:37.796Z,102403.31
2023-05-22T09:55:43.881Z,102396.00
2023-05-22T09:58:49.564Z,102387.88
2023-05-22T10:01:55.430Z,102384.91
2023-05-22T10:05:02.590Z,102378.81
2023-05-22T10:08:13.061Z,102373.38
2023-05-22T10:11:18.260Z,102376.81
2023-05-22T10:14:23.915Z,102377.41
2023-05-22T10:17:29.301Z,102375.59
2023-05-22T10:20:34.384Z,102365.81
2023-05-22T10:23:41.240Z,102367.09
2023-05-22T10:26:46.754Z,102358.47
2023-05-22T10:29:54.463Z,102357.69
2023-05-22T10:33:04.741Z,102348.63
2023-05-22T10:36:11.738Z,102349.38
2023-05-22T10:39:31.609Z,102343.00
2023-05-22T10:42:38.381Z,102326.31
2023-05-22T10:45:45.294Z,102323.72
2023-05-22T10:48:51.796Z,102327.72
2023-05-22T10:52:00.300Z,102328.41
2023-05-22T10:55:10.259Z,102322.03
2023-05-22T10:58:15.519Z,102314.22
2023-05-22T11:01:21.739Z,102306.06
2023-05-22T11:04:31.536Z,102298.91
2023-05-22T11:07:42.574Z,102299.22
2023-05-22T11:10:55.941Z,102293.34
2023-05-22T11:14:04.560Z,102290.06
2023-05-22T11:17:18.625Z,102279.50
2023-05-22T11:20:24.930Z,102274.16
2023-05-22T11:23:37.163Z,102281.13
2023-05-22T11:26:46.060Z,102269.97
2023-05-22T11:29:52.194Z,102270.81
2023-05-22T11:32:58.382Z,102263.84
2023-05-22T11:36:04.193Z,102259.28
2023-05-22T11:39:09.720Z,102262.03
2023-05-22T11:42:16.590Z,102251.41
2023-05-22T11:45:21.895Z,102254.22
2023-05-22T11:48:27.208Z,102251.56
2023-05-22T11:51:32.453Z,102250.34
2023-05-22T11:54:38.933Z,102248.09
2023-05-22T11:57:47.305Z,102240.78
2023-05-22T12:00:52.656Z,102239.06
2023-05-22T12:03:58.020Z,102242.72
2023-05-22T12:07:03.629Z,102235.41
2023-05-22T12:10:09.353Z,102232.28
2023-05-22T12:13:22.969Z,102228.25
2023-05-22T12:16:28.210Z,102224.94
2023-05-22T12:19:33.773Z,102217.34
2023-05-22T12:22:44.282Z,102210.88
2023-05-22T12:25:49.411Z,102186.56
2023-05-22T12:28:56.473Z,102195.34
2023-05-22T12:32:04.150Z,102197.97
2023-05-22T12:35:17.300Z,102198.59
2023-05-22T12:38:23.400Z,102192.91
2023-05-22T12:41:28.580Z,102190.38
2023-05-22T12:44:35.325Z,102177.44
2023-05-22T12:47:40.413Z,102172.69
2023-05-22T12:50:46.321Z,102176.94
2023-05-22T12:53:51.467Z,102172.09
2023-05-22T12:56:56.706Z,102159.50
2023-05-22T13:00:03.191Z,102158.47
2023-05-22T13:03:08.978Z,102170.34
2023-05-22T13:06:14.420Z,102152.31
2023-05-22T13:09:21.260Z,102155.69
2023-05-22T13:12:27.287Z,102146.59
2023-05-22T13:15:33.741Z,102142.22
2023-05-22T13:18:38.904Z,102149.13
2023-05-22T13:21:44.748Z,102144.78
2023-05-22T13:24:50.111Z,102159.81
2023-05-22T13:27:55.230Z,102150.34
2023-05-22T13:31:01.782Z,102150.03
2023-05-22T13:34:07.542Z,102137.22
2023-05-22T13:37:13.423Z,102131.44
2023-05-22T13:40:18.704Z,102127.84
2023-05-22T13:43:23.873Z,102133.88
2023-05-22T13:46:30.632Z,102128.69
2023-05-22T13:49:35.780Z,102120.63
2023-05-22T13:52:41.075Z,102122.31
2023-05-22T13:55:46.673Z,102116.91
2023-05-22T13:58:51.741Z,102111.03
2023-05-22T14:01:58.297Z,102104.50
2023-05-22T14:05:03.660Z,102110.72
2023-05-22T14:08:09.038Z,102109.06
2023-05-22T14:11:14.371Z,102102.16
2023-05-22T14:14:23.866Z,102092.09
2023-05-22T14:17:30.772Z,102095.44
2023-05-22T14:20:36.103Z,102100.00
2023-05-22T14:23:41.236Z,102093.41
2023-05-22T14:26:46.302Z,102095.28
2023-05-22T14:29:51.640Z,102083.91
2023-05-22T14:32:58.286Z,102082.06
2023-05-22T14:36:03.586Z,102085.28
2023-05-22T14:39:08.815Z,102085.38
2023-05-22T14:42:14.450Z,102084.63
2023-05-22T14:45:19.585Z,102084.56
2023-05-22T14:48:26.670Z,102082.22
2023-05-22T14:51:32.091Z,102074.13
2023-05-22T14:54:37.145Z,102068.88
2023-05-22T14:57:42.324Z,102070.38
2023-05-22T15:00:48.299Z,102076.75
2023-05-22T15:03:54.982Z,102071.50
2023-05-22T15:07:00.307Z,102068.13
2023-05-22T15:10:05.984Z,102066.19
2023-05-22T15:13:14.021Z,102056.28
2023-05-22T15:16:19.243Z,102060.41
2023-05-22T15:19:26.349Z,102048.91
2023-05-22T15:22:31.554Z,102049.09
2023-05-22T15:25:36.854Z,102048.25
2023-05-22T15:28:42.335Z,102056.81
2023-05-22T15:31:47.565Z,102044.97
2023-05-22T15:34:54.243Z,102047.72
2023-05-22T15:37:59.287Z,102041.78
2023-05-22T15:41:04.585Z,102040.84
2023-05-22T15:44:12.130Z,102042.84
2023-05-22T15:47:17.534Z,102043.72
2023-05-22T15:50:24.350Z,102031.91
2023-05-22T15:53:29.502Z,102025.28
2023-05-22T15:56:34.526Z,102021.25
2023-05-22T15:59:39.745Z,102024.50
2023-05-22T16:02:45.026Z,102018.75
2023-05-22T16:05:51.586Z,102014.94
2023-05-22T16:08:56.732Z,102011.16
2023-05-22T16:12:02.014Z,102011.41
2023-05-22T16:15:08.861Z,102008.22
2023-05-22T16:18:14.070Z,102005.97
2023-05-22T16:21:20.565Z,102005.84
2023-05-22T16:24:26.171Z,102004.03
2023-05-22T16:27:31.249Z,102000.66
2023-05-22T16:30:36.652Z,101998.19
2023-05-22T16:33:41.763Z,102001.56
2023-05-22T16:36:48.356Z,102002.38
2023-05-22T16:39:53.751Z,101992.44
2023-05-22T16:42:58.930Z,101985.34
2023-05-22T16:46:04.178Z,101989.63
2023-05-22T16:49:09.436Z,101993.50
2023-05-22T16:52:16.960Z,101988.78
2023-05-22T16:55:22.419Z,101989.94
2023-05-22T16:58:27.576Z,101991.09
2023-05-22T17:01:32.999Z,101980.53
2023-05-22T17:04:38.168Z,101983.63
2023-05-22T17:07:44.719Z,101979.94
2023-05-22T17:10:50.126Z,101986.34
2023-05-22T17:13:55.510Z,101975.81
2023-05-22T17:17:00.796Z,101967.88
2023-05-22T17:20:07.383Z,101968.00
2023-05-22T17:23:14.328Z,101973.16
2023-05-22T17:26:19.505Z,101967.88
2023-05-22T17:29:26.084Z,101971.38
2023-05-22T17:32:33.248Z,101964.28
2023-05-22T17:35:38.480Z,101964.56
2023-05-22T17:38:45.078Z,101957.59
2023-05-22T17:41:50.761Z,101959.00
2023-05-22T17:44:56.065Z,101955.47
2023-05-22T17:48:01.176Z,101949.53
2023-05-22T17:51:06.813Z,101956.88
2023-05-22T17:54:16.911Z,101956.53
2023-05-22T17:57:22.031Z,101950.78
2023-05-22T18:00:27.394Z,101950.00
2023-05-22T18:03:32.831Z,101943.75
2023-05-22T18:06:38.147Z,101955.75
2023-05-22T18:09:44.702Z,101948.50
2023-05-22T18:12:49.805Z,101950.53
2023-05-22T18:15:55.785Z,101949.47
2023-05-22T18:19:01.352Z,101944.72
2023-05-22T18:22:06.662Z,101940.97
2023-05-22T18:25:14.402Z,101939.94
2023-05-22T18:28:23.366Z,101928.91
2023-05-22T18:31:28.680Z,101936.84
2023-05-22T18:34:35.803Z,101931.94
2023-05-22T18:37:42.233Z,101924.50
2023-05-22T18:40:48.926Z,101923.94
2023-05-22T18:43:54.437Z,101930.25
2023-05-22T18:46:59.740Z,101930.59
2023-05-22T18:50:04.931Z,101930.91
2023-05-22T18:53:11.237Z,101929.41
2023-05-22T18:56:17.887Z,101931.44
2023-05-22T18:59:23.143Z,101926.41
2023-05-22T19:02:28.685Z,101931.84
2023-05-22T19:05:34.043Z,101919.91
2023-05-22T19:08:39.159Z,101923.53
2023-05-22T19:11:45.798Z,101917.44
2023-05-22T19:14:52.650Z,101915.25
2023-05-22T19:17:58.077Z,101928.63
2023-05-22T19:21:03.579Z,101928.09
2023-05-22T19:24:08.968Z,101928.63
2023-05-22T19:27:15.893Z,101925.63
2023-05-22T19:30:22.064Z,101927.88
2023-05-22T19:33:27.693Z,101929.63
2023-05-22T19:36:32.892Z,101922.00
2023-05-22T19:39:38.362Z,101919.63
2023-05-22T19:42:45.048Z,101919.75
2023-05-22T19:45:50.563Z,101915.81
2023-05-22T19:48:56.003Z,101910.66
2023-05-22T19:52:01.246Z,101910.47
2023-05-22T19:55:07.252Z,101908.97
2023-05-22T19:58:17.144Z,101914.31
2023-05-22T20:01:22.549Z,101907.53
2023-05-22T20:04:27.859Z,101901.25
2023-05-22T20:07:33.240Z,101901.91
2023-05-22T20:10:38.650Z,101894.00
2023-05-22T20:13:45.476Z,101898.78
2023-05-22T20:16:51.197Z,101897.44
2023-05-22T20:19:57.693Z,101900.63
2023-05-22T20:23:03.400Z,101891.22
2023-05-22T20:26:08.627Z,101893.56
2023-05-22T20:29:15.587Z,101903.88
2023-05-22T20:32:20.867Z,101895.66
2023-05-22T20:35:26.516Z,101896.75
2023-05-22T20:38:34.580Z,101897.25
2023-05-22T20:41:39.664Z,101889.34
2023-05-22T20:44:46.303Z,101884.28
2023-05-22T20:47:52.170Z,101881.34
2023-05-22T20:50:57.443Z,101878.91
2023-05-22T20:54:02.789Z,101883.84
2023-05-22T20:57:07.959Z,101883.38
2023-05-22T21:00:15.858Z,101890.41
2023-05-22T21:03:22.053Z,101876.53
2023-05-22T21:06:28.537Z,101879.06
2023-05-22T21:09:33.680Z,101880.28
2023-05-22T21:12:38.762Z,101874.72
2023-05-22T21:15:45.228Z,101869.25
2023-05-22T21:18:50.286Z,101866.22
2023-05-22T21:21:55.500Z,101866.94
2023-05-22T21:25:00.860Z,101861.13
2023-05-22T21:28:07.749Z,101863.78
2023-05-22T21:31:14.583Z,101852.72
2023-05-22T21:34:19.678Z,101845.94
2023-05-22T21:37:25.715Z,101838.63
2023-05-22T21:40:30.827Z,101847.19
2023-05-22T21:43:35.972Z,101853.47
2023-05-22T21:46:42.554Z,101849.81
2023-05-22T21:49:48.067Z,101847.38
2023-05-22T21:52:53.556Z,101843.16
2023-05-22T21:55:58.632Z,101836.09
2023-05-22T21:59:03.759Z,101844.16
2023-05-22T22:02:10.638Z,101846.19
2023-05-22T22:05:18.601Z,101842.34
2023-05-22T22:08:23.696Z,101838.25
2023-05-22T22:11:28.885Z,101844.19
2023-05-22T22:14:33.964Z,101834.00
2023-05-22T22:17:40.687Z,101837.34
2023-05-22T22:20:45.926Z,101822.84
2023-05-22T22:23:51.320Z,101831.28
2023-05-22T22:26:56.782Z,101819.31
2023-05-22T22:30:02.454Z,101821.00
2023-05-22T22:33:09.368Z,101820.31
2023-05-22T22:36:14.537Z,101818.13
2023-05-22T22:39:19.648Z,101810.97
2023-05-22T22:42:24.939Z,101812.78
2023-05-22T22:45:29.988Z,101818.34
2023-05-22T22:48:36.654Z,101812.13
2023-05-22T22:51:41.950Z,101801.47
2023-05-22T22:54:47.092Z,101808.44
2023-05-22T22:57:52.367Z,101803.09
2023-05-22T23:00:57.733Z,101791.59
2023-05-22T23:04:04.278Z,101794.38
2023-05-22T23:07:09.971Z,101785.97
2023-05-22T23:10:15.978Z,101777.25
2023-05-22T23:13:21.209Z,101778.25
2023-05-22T23:16:26.301Z,101779.09
2023-05-22T23:19:33.072Z,101768.06
2023-05-22T23:22:38.138Z,101770.16
2023-05-22T23:25:43.366Z,101769.88
2023-05-22T23:28:48.532Z,101766.97
2023-05-22T23:31:54.192Z,101769.44
2023-05-22T23:35:00.671Z,101767.88
2023-05-22T23:38:05.959Z,101769.00
2023-05-22T23:41:10.996Z,101759.06
2023-05-22T23:44:16.196Z,101765.41
2023-05-22T23:47:21.610Z,101766.41
2023-05-22T23:50:28.280Z,101762.13
2023-05-22T23:53:33.686Z,101761.69
2023-05-22T23:56:39.061Z,101749.97
2023-05-22T23:59:44.213Z,101750.66
